createdAt,value
2019-02-25T00:00:24.213Z,84.30
2019-02-25T00:03:08.448Z,84.00
2019-02-25T00:05:48.761Z,83.20
2019-02-25T00:08:33.564Z,82.80
2019-02-25T00:11:14.576Z,83.60
2019-02-25T00:13:53.984Z,83.30
2019-02-25T00:16:36.344Z,82.90
2019-02-25T00:19:15.686Z,82.40
2019-02-25T00:21:54.844Z,82.20
2019-02-25T00:24:43.334Z,82.70
2019-02-25T00:27:22.532Z,82.70
2019-02-25T00:30:01.665Z,82.30
2019-02-25T00:32:41.762Z,82.20
2019-02-25T00:35:21.047Z,82.80
2019-02-25T00:38:19.836Z,83.20
2019-02-25T00:40:58.714Z,83.40
2019-02-25T00:43:40.072Z,82.80
2019-02-25T00:46:20.044Z,82.60
2019-02-25T00:49:02.077Z,79.00
2019-02-25T00:51:42.171Z,78.10
2019-02-25T00:54:21.369Z,81.60
2019-02-25T00:57:00.657Z,82.00
2019-02-25T00:59:40.082Z,80.50
2019-02-25T01:02:20.608Z,80.40
2019-02-25T01:05:00.011Z,80.50
2019-02-25T01:07:40.068Z,80.30
2019-02-25T01:10:20.522Z,80.10
2019-02-25T01:12:59.647Z,79.80
2019-02-25T01:15:39.299Z,79.50
2019-02-25T01:18:18.628Z,79.90
2019-02-25T01:20:58.212Z,78.20
2019-02-25T01:23:37.278Z,75.90
2019-02-25T01:26:19.496Z,76.30
2019-02-25T01:28:58.454Z,76.40
2019-02-25T01:31:37.832Z,75.50
2019-02-25T01:34:17.782Z,75.80
2019-02-25T01:37:00.362Z,75.60
2019-02-25T01:39:42.871Z,75.60
2019-02-25T01:42:23.720Z,74.50
2019-02-25T01:45:02.911Z,74.70
2019-02-25T01:47:43.378Z,75.50
2019-02-25T01:50:22.682Z,75.00
2019-02-25T01:53:02.992Z,75.80
2019-02-25T01:55:43.267Z,76.30
2019-02-25T01:58:23.708Z,76.50
2019-02-25T02:01:06.401Z,75.00
2019-02-25T02:03:45.919Z,75.20
2019-02-25T02:06:27.447Z,74.10
2019-02-25T02:09:08.465Z,74.70
2019-02-25T02:11:53.111Z,73.70
2019-02-25T02:14:33.357Z,73.10
2019-02-25T02:17:13.704Z,74.50
2019-02-25T02:19:53.939Z,74.20
2019-02-25T02:22:33.210Z,75.50
2019-02-25T02:25:14.926Z,75.20
2019-02-25T02:27:53.919Z,74.60
2019-02-25T02:30:32.720Z,74.50
2019-02-25T02:33:12.463Z,74.10
2019-02-25T02:35:53.485Z,70.90
2019-02-25T02:38:32.815Z,71.40
2019-02-25T02:41:13.265Z,72.60
2019-02-25T02:43:52.612Z,73.40
2019-02-25T02:47:14.419Z,73.80
2019-02-25T02:49:53.739Z,74.00
2019-02-25T02:52:32.639Z,76.20
2019-02-25T02:55:30.650Z,76.80
2019-02-25T02:58:11.763Z,76.70
2019-02-25T03:00:51.472Z,74.60
2019-02-25T03:03:31.066Z,73.50
2019-02-25T03:06:10.522Z,72.80
2019-02-25T03:08:49.824Z,69.60
2019-02-25T03:11:29.146Z,66.10
2019-02-25T03:14:11.571Z,64.30
2019-02-25T03:16:52.016Z,63.70
2019-02-25T03:19:31.612Z,61.70
2019-02-25T03:22:11.178Z,61.50
2019-02-25T03:24:51.702Z,60.50
2019-02-25T03:27:31.219Z,60.00
2019-02-25T03:30:13.239Z,59.70
2019-02-25T03:32:52.840Z,60.90
2019-02-25T03:35:32.319Z,60.00
2019-02-25T03:38:13.131Z,61.20
2019-02-25T03:40:53.049Z,61.50
2019-02-25T03:43:32.322Z,61.50
2019-02-25T03:46:11.627Z,62.80
2019-02-25T03:48:50.861Z,63.20
2019-02-25T03:51:38.957Z,64.60
2019-02-25T03:54:18.344Z,67.50
2019-02-25T03:57:00.704Z,68.10
2019-02-25T03:59:41.082Z,65.70
2019-02-25T04:02:21.172Z,66.30
2019-02-25T04:05:01.322Z,63.50
2019-02-25T04:07:49.538Z,64.50
2019-02-25T04:10:28.737Z,65.90
2019-02-25T04:13:09.197Z,67.70
2019-02-25T04:15:48.469Z,66.90
2019-02-25T04:18:28.943Z,63.30
2019-02-25T04:21:09.154Z,61.00
2019-02-25T04:23:48.320Z,60.10
2019-02-25T04:26:27.452Z,59.30
2019-02-25T04:29:07.335Z,58.10
2019-02-25T04:31:51.151Z,57.70
2019-02-25T04:34:31.189Z,58.90
2019-02-25T04:37:10.585Z,60.00
2019-02-25T04:39:51.886Z,61.30
2019-02-25T04:42:31.105Z,62.20
2019-02-25T04:45:12.495Z,63.40
2019-02-25T04:47:54.626Z,63.50
2019-02-25T04:50:34.762Z,61.10
2019-02-25T04:53:15.061Z,60.30
2019-02-25T04:55:56.009Z,60.40
2019-02-25T04:58:36.821Z,60.90
2019-02-25T05:01:16.144Z,61.30
2019-02-25T05:03:56.562Z,58.90
2019-02-25T05:06:35.998Z,60.80
2019-02-25T05:09:16.209Z,61.80
2019-02-25T05:11:55.311Z,60.50
2019-02-25T05:14:34.422Z,59.80
2019-02-25T05:17:20.365Z,61.40
2019-02-25T05:20:03.443Z,63.50
2019-02-25T05:22:43.869Z,61.30
2019-02-25T05:25:22.813Z,60.40
2019-02-25T05:28:02.963Z,61.40
2019-02-25T05:30:42.390Z,61.60
2019-02-25T05:33:21.805Z,63.20
2019-02-25T05:36:00.946Z,63.90
2019-02-25T05:38:45.284Z,62.90
2019-02-25T05:41:25.358Z,60.70
2019-02-25T05:44:04.636Z,59.20
2019-02-25T05:46:43.615Z,59.60
2019-02-25T05:49:23.029Z,60.40
2019-02-25T05:52:02.045Z,59.00
2019-02-25T05:54:41.641Z,60.50
2019-02-25T05:57:20.537Z,59.70
2019-02-25T06:00:03.699Z,60.60
2019-02-25T06:02:44.794Z,58.90
2019-02-25T06:05:27.002Z,58.10
2019-02-25T06:08:06.897Z,58.40
2019-02-25T06:10:48.659Z,58.70
2019-02-25T06:13:28.046Z,58.70
2019-02-25T06:16:10.974Z,59.40
2019-02-25T06:18:51.133Z,58.80
2019-02-25T06:21:31.030Z,56.70
2019-02-25T06:24:10.368Z,58.80
2019-02-25T06:26:49.983Z,59.70
2019-02-25T06:29:29.345Z,58.80
2019-02-25T06:32:10.108Z,57.40
2019-02-25T06:34:49.314Z,57.80
2019-02-25T06:37:29.093Z,59.60
2019-02-25T06:40:10.343Z,60.00
2019-02-25T06:42:53.250Z,60.70
2019-02-25T06:45:31.213Z,59.50
2019-02-25T06:48:10.807Z,59.50
2019-02-25T06:50:51.160Z,59.00
2019-02-25T06:53:30.546Z,59.10
2019-02-25T06:56:11.567Z,59.60
2019-02-25T06:58:50.414Z,58.20
2019-02-25T07:01:29.546Z,58.00
2019-02-25T07:04:30.996Z,57.30
2019-02-25T07:07:21.790Z,57.40
2019-02-25T07:10:18.372Z,56.80
2019-02-25T07:13:15.847Z,57.90
2019-02-25T07:16:19.407Z,57.70
2019-02-25T07:19:27.211Z,57.90
2019-02-25T07:22:21.583Z,58.00
2019-02-25T07:25:22.539Z,58.20
2019-02-25T07:28:21.058Z,57.80
2019-02-25T07:31:18.283Z,58.70
2019-02-25T07:34:05.142Z,57.70
2019-02-25T07:37:10.424Z,58.60
2019-02-25T07:40:22.407Z,58.20
2019-02-25T07:43:20.801Z,59.00
2019-02-25T07:46:19.570Z,60.00
2019-02-25T07:49:26.647Z,60.30
2019-02-25T07:52:24.257Z,61.50
2019-02-25T07:55:21.298Z,61.40
2019-02-25T07:58:13.081Z,61.90
2019-02-25T08:01:00.277Z,62.00
2019-02-25T08:03:47.601Z,64.00
2019-02-25T08:06:48.437Z,65.60
2019-02-25T08:09:39.662Z,66.00
2019-02-25T08:12:39.878Z,65.20
2019-02-25T08:15:37.338Z,65.80
2019-02-25T08:18:52.614Z,67.10
2019-02-25T08:21:48.745Z,66.80
2019-02-25T08:24:36.758Z,66.40
2019-02-25T08:27:34.601Z,66.00
2019-02-25T08:30:21.487Z,67.60
2019-02-25T08:33:25.711Z,66.30
2019-02-25T08:37:09.022Z,66.20
2019-02-25T08:40:20.374Z,65.60
2019-02-25T08:43:19.102Z,69.00
2019-02-25T08:46:15.360Z,68.30
2019-02-25T08:49:15.795Z,66.80
2019-02-25T08:51:55.034Z,66.80
2019-02-25T08:54:34.528Z,67.70
2019-02-25T08:57:13.787Z,68.50
2019-02-25T08:59:53.107Z,67.40
2019-02-25T09:02:34.571Z,65.00
2019-02-25T09:05:17.176Z,66.00
2019-02-25T09:08:00.105Z,66.90
2019-02-25T09:10:40.347Z,68.10
2019-02-25T09:13:19.753Z,66.80
2019-02-25T09:15:58.830Z,68.60
2019-02-25T09:18:38.332Z,68.40
2019-02-25T09:21:20.183Z,67.90
2019-02-25T09:23:59.666Z,69.10
2019-02-25T09:26:40.093Z,68.80
2019-02-25T09:29:19.468Z,68.50
2019-02-25T09:31:58.748Z,68.70
2019-02-25T09:34:38.893Z,70.00
2019-02-25T09:37:18.254Z,70.30
2019-02-25T09:39:58.496Z,70.00
2019-02-25T09:42:38.704Z,69.50
2019-02-25T09:45:58.438Z,71.50
2019-02-25T09:48:37.854Z,69.60
2019-02-25T09:51:17.071Z,68.80
2019-02-25T09:54:01.651Z,69.20
2019-02-25T09:56:42.495Z,69.80
2019-02-25T09:59:21.720Z,70.20
2019-02-25T10:02:00.918Z,69.50
2019-02-25T10:04:41.737Z,68.30
2019-02-25T10:07:21.143Z,70.80
2019-02-25T10:10:01.797Z,71.40
2019-02-25T10:12:43.620Z,70.60
2019-02-25T10:15:24.012Z,69.30
2019-02-25T10:18:03.406Z,70.60
2019-02-25T10:20:42.483Z,71.00
2019-02-25T10:23:21.899Z,72.70
2019-02-25T10:26:02.349Z,72.20
2019-02-25T10:28:45.094Z,72.40
2019-02-25T10:31:25.317Z,73.70
2019-02-25T10:34:10.336Z,74.20
2019-02-25T10:36:52.373Z,73.70
2019-02-25T10:39:31.670Z,73.90
2019-02-25T10:42:10.781Z,74.80
2019-02-25T10:44:52.920Z,74.70
2019-02-25T10:47:32.679Z,75.60
2019-02-25T10:50:28.785Z,76.10
2019-02-25T10:53:03.413Z,75.30
2019-02-25T10:55:46.710Z,75.20
2019-02-25T10:58:26.986Z,74.90
2019-02-25T11:01:08.469Z,73.40
2019-02-25T11:03:52.053Z,74.80
2019-02-25T11:06:35.127Z,75.80
2019-02-25T11:09:30.917Z,76.20
2019-02-25T11:12:10.246Z,76.40
2019-02-25T11:14:49.330Z,78.00
2019-02-25T11:17:29.092Z,77.80
2019-02-25T11:20:09.251Z,77.30
2019-02-25T11:22:51.213Z,76.40
2019-02-25T11:25:30.769Z,77.10
2019-02-25T11:28:23.574Z,77.30
2019-02-25T11:30:55.852Z,77.60
2019-02-25T11:33:34.816Z,77.10
2019-02-25T11:36:17.668Z,78.00
2019-02-25T11:38:57.973Z,78.30
2019-02-25T11:41:39.347Z,78.70
2019-02-25T11:44:19.045Z,79.00
2019-02-25T11:46:59.037Z,78.70
2019-02-25T11:49:38.894Z,78.10
2019-02-25T11:52:18.140Z,78.30
2019-02-25T11:54:57.490Z,78.70
2019-02-25T11:57:38.600Z,78.70
2019-02-25T12:00:25.314Z,78.50
2019-02-25T12:03:04.497Z,77.90
2019-02-25T12:05:44.861Z,77.60
2019-02-25T12:08:25.041Z,78.40
2019-02-25T12:11:04.144Z,78.70
2019-02-25T12:13:46.766Z,78.50
2019-02-25T12:16:28.316Z,78.40
2019-02-25T12:19:17.726Z,78.10
2019-02-25T12:21:52.480Z,78.40
2019-02-25T12:24:31.419Z,78.90
2019-02-25T12:27:11.841Z,79.00
2019-02-25T12:29:52.953Z,78.80
2019-02-25T12:32:33.276Z,79.50
2019-02-25T12:35:17.260Z,80.00
2019-02-25T12:37:58.655Z,79.80
2019-02-25T12:40:38.095Z,79.10
2019-02-25T12:43:18.883Z,78.50
2019-02-25T12:45:58.169Z,78.20
2019-02-25T12:48:39.154Z,78.50
2019-02-25T12:51:22.791Z,78.50
2019-02-25T12:54:06.336Z,78.40
2019-02-25T12:56:45.732Z,77.70
2019-02-25T12:59:24.625Z,76.90
2019-02-25T13:02:04.024Z,77.10
2019-02-25T13:04:46.988Z,77.10
2019-02-25T13:07:27.270Z,78.90
2019-02-25T13:10:06.538Z,78.00
2019-02-25T13:12:46.683Z,78.70
2019-02-25T13:15:27.017Z,79.20
2019-02-25T13:18:07.675Z,79.30
2019-02-25T13:20:48.801Z,78.90
2019-02-25T13:23:29.362Z,77.80
2019-02-25T13:26:08.801Z,77.40
2019-02-25T13:28:48.353Z,77.50
2019-02-25T13:31:28.696Z,76.90
2019-02-25T13:34:08.178Z,76.70
2019-02-25T13:37:53.620Z,76.20
2019-02-25T13:40:34.989Z,76.40
2019-02-25T13:43:15.823Z,76.90
2019-02-25T13:45:57.173Z,77.80
2019-02-25T13:48:39.120Z,78.00
2019-02-25T13:51:19.519Z,77.70
2019-02-25T13:53:58.937Z,77.60
2019-02-25T13:56:43.709Z,77.90
2019-02-25T13:59:25.293Z,78.00
2019-02-25T14:02:04.712Z,78.40
2019-02-25T14:04:45.852Z,77.70
2019-02-25T14:07:26.561Z,76.90
2019-02-25T14:10:07.849Z,77.50
2019-02-25T14:12:45.697Z,77.20
2019-02-25T14:15:24.959Z,76.90
2019-02-25T14:18:05.316Z,76.10
2019-02-25T14:20:45.034Z,76.50
2019-02-25T14:23:25.490Z,77.10
2019-02-25T14:26:04.884Z,76.80
2019-02-25T14:28:46.682Z,76.80
2019-02-25T14:31:27.291Z,76.70
2019-02-25T14:34:07.678Z,76.60
2019-02-25T14:36:48.395Z,76.60
2019-02-25T14:39:33.400Z,76.40
2019-02-25T14:42:13.457Z,76.80
2019-02-25T14:44:54.419Z,78.20
2019-02-25T14:47:36.938Z,77.70
2019-02-25T14:50:22.590Z,77.40
2019-02-25T14:53:11.564Z,77.10
2019-02-25T14:55:53.143Z,78.00
2019-02-25T14:58:37.870Z,78.30
2019-02-25T15:01:27.977Z,76.90
2019-02-25T15:04:27.950Z,76.50
2019-02-25T15:07:08.658Z,78.00
2019-02-25T15:09:49.073Z,79.20
2019-02-25T15:12:29.506Z,79.40
2019-02-25T15:15:09.421Z,78.80
2019-02-25T15:17:52.711Z,79.30
2019-02-25T15:20:32.261Z,79.90
2019-02-25T15:23:14.565Z,79.40
2019-02-25T15:25:54.871Z,78.90
2019-02-25T15:28:34.062Z,77.80
2019-02-25T15:31:14.127Z,77.50
2019-02-25T15:33:59.015Z,77.70
2019-02-25T15:36:47.977Z,77.60
2019-02-25T15:39:28.475Z,77.50
2019-02-25T15:42:09.181Z,78.00
2019-02-25T15:44:49.249Z,78.10
2019-02-25T15:47:31.451Z,77.60
2019-02-25T15:50:12.755Z,77.50
2019-02-25T15:52:52.924Z,78.40
2019-02-25T15:55:38.145Z,78.10
2019-02-25T15:58:18.127Z,78.00
2019-02-25T16:00:59.351Z,77.80
2019-02-25T16:03:40.860Z,78.10
2019-02-25T16:06:25.019Z,78.30
2019-02-25T16:09:05.336Z,78.00
2019-02-25T16:11:47.364Z,77.40
2019-02-25T16:14:27.657Z,77.60
2019-02-25T16:17:09.423Z,78.50
2019-02-25T16:19:53.132Z,79.00
2019-02-25T16:22:31.862Z,78.90
2019-02-25T16:25:13.016Z,78.60
2019-02-25T16:27:54.264Z,78.80
2019-02-25T16:30:35.042Z,79.40
2019-02-25T16:33:17.714Z,79.10
2019-02-25T16:35:58.654Z,79.30
2019-02-25T16:38:44.166Z,79.10
2019-02-25T16:41:27.485Z,78.70
2019-02-25T16:44:07.301Z,79.20
2019-02-25T16:46:54.061Z,79.20
2019-02-25T16:49:33.976Z,79.20
2019-02-25T16:52:15.887Z,78.00
2019-02-25T16:54:57.726Z,78.40
2019-02-25T16:57:41.287Z,78.50
2019-02-25T17:00:25.294Z,78.60
2019-02-25T17:03:06.654Z,78.20
2019-02-25T17:05:49.883Z,77.80
2019-02-25T17:08:30.354Z,78.00
2019-02-25T17:11:10.854Z,78.40
2019-02-25T17:13:52.894Z,78.60
2019-02-25T17:16:31.564Z,78.10
2019-02-25T17:19:11.756Z,78.40
2019-02-25T17:21:51.315Z,78.20
2019-02-25T17:24:35.253Z,78.50
2019-02-25T17:27:15.960Z,78.40
2019-02-25T17:29:57.603Z,78.90
2019-02-25T17:32:43.684Z,78.30
2019-02-25T17:35:30.246Z,78.40
2019-02-25T17:38:07.812Z,78.50
2019-02-25T17:40:47.987Z,78.70
2019-02-25T17:43:27.463Z,79.30
2019-02-25T17:46:07.443Z,78.80
2019-02-25T17:48:47.374Z,78.30
2019-02-25T17:51:30.046Z,77.80
2019-02-25T17:54:11.981Z,78.10
2019-02-25T17:56:51.846Z,78.70
2019-02-25T17:59:31.592Z,78.00
2019-02-25T18:02:12.603Z,76.80
2019-02-25T18:04:53.283Z,76.60
2019-02-25T18:07:33.413Z,77.70
2019-02-25T18:10:13.015Z,78.30
2019-02-25T18:12:55.237Z,77.80
2019-02-25T18:15:35.612Z,77.50
2019-02-25T18:18:17.117Z,78.10
2019-02-25T18:20:55.620Z,79.20
2019-02-25T18:23:36.235Z,79.30
2019-02-25T18:26:15.413Z,78.50
2019-02-25T18:28:54.781Z,78.10
2019-02-25T18:31:35.378Z,78.30
2019-02-25T18:34:15.091Z,78.80
2019-02-25T18:36:55.448Z,78.70
2019-02-25T18:39:34.826Z,78.30
2019-02-25T18:42:15.964Z,78.40
2019-02-25T18:44:56.215Z,78.80
2019-02-25T18:47:35.415Z,78.00
2019-02-25T18:50:19.156Z,78.10
2019-02-25T18:52:59.582Z,78.00
2019-02-25T18:55:41.313Z,78.70
2019-02-25T18:58:21.029Z,78.70
2019-02-25T19:01:00.309Z,78.30
2019-02-25T19:03:39.469Z,78.30
2019-02-25T19:06:21.300Z,79.10
2019-02-25T19:09:00.315Z,78.70
2019-02-25T19:11:42.832Z,77.70
2019-02-25T19:14:26.521Z,78.20
2019-02-25T19:17:06.558Z,78.60
2019-02-25T19:19:49.917Z,79.00
2019-02-25T19:22:29.531Z,78.20
2019-02-25T19:25:10.045Z,78.20
2019-02-25T19:27:52.159Z,78.80
2019-02-25T19:30:32.110Z,79.20
2019-02-25T19:33:12.733Z,79.00
2019-02-25T19:35:52.563Z,78.40
2019-02-25T19:38:36.024Z,78.10
2019-02-25T19:41:15.438Z,78.30
2019-02-25T19:43:59.160Z,78.80
2019-02-25T19:46:34.781Z,79.20
2019-02-25T19:49:18.229Z,79.00
2019-02-25T19:51:57.189Z,78.90
2019-02-25T19:54:40.704Z,78.30
2019-02-25T19:57:21.640Z,78.80
2019-02-25T20:00:05.965Z,79.00
2019-02-25T20:02:47.975Z,78.60
2019-02-25T20:05:27.274Z,77.90
2019-02-25T20:08:06.922Z,78.50
2019-02-25T20:10:47.349Z,78.60
2019-02-25T20:13:26.619Z,78.50
2019-02-25T20:16:08.132Z,77.90
2019-02-25T20:18:46.763Z,77.10
2019-02-25T20:21:27.207Z,77.10
2019-02-25T20:24:10.133Z,77.20
2019-02-25T20:26:50.630Z,77.70
2019-02-25T20:29:27.869Z,77.10
2019-02-25T20:32:10.051Z,76.80
2019-02-25T20:34:50.602Z,76.40
2019-02-25T20:37:33.791Z,77.70
2019-02-25T20:40:17.131Z,77.10
2019-02-25T20:43:03.891Z,77.30
2019-02-25T20:45:43.102Z,77.60
2019-02-25T20:48:23.180Z,76.80
2019-02-25T20:51:06.708Z,77.10
2019-02-25T20:53:46.172Z,77.30
2019-02-25T20:56:26.665Z,77.10
2019-02-25T20:59:07.579Z,77.10
2019-02-25T21:01:48.867Z,76.90
2019-02-25T21:04:27.917Z,77.90
2019-02-25T21:07:08.813Z,77.60
2019-02-25T21:09:49.996Z,77.70
2019-02-25T21:12:29.797Z,77.90
2019-02-25T21:15:09.900Z,77.50
2019-02-25T21:17:49.437Z,77.90
2019-02-25T21:20:31.177Z,77.10
2019-02-25T21:23:11.995Z,76.60
2019-02-25T21:25:55.470Z,76.90
2019-02-25T21:28:33.692Z,76.80
2019-02-25T21:31:16.610Z,76.40
2019-02-25T21:33:58.708Z,76.80
2019-02-25T21:36:52.460Z,77.00
2019-02-25T21:39:32.095Z,76.80
2019-02-25T21:42:14.761Z,76.50
2019-02-25T21:44:54.384Z,76.80
2019-02-25T21:47:35.144Z,77.10
2019-02-25T21:50:15.738Z,77.10
2019-02-25T21:52:55.880Z,77.10
2019-02-25T21:55:35.128Z,76.90
2019-02-25T21:58:13.985Z,77.30
2019-02-25T22:00:54.485Z,77.60
2019-02-25T22:03:39.440Z,77.30
2019-02-25T22:06:20.024Z,76.60
2019-02-25T22:08:58.631Z,76.60
2019-02-25T22:11:39.962Z,77.20
2019-02-25T22:14:21.732Z,77.30
2019-02-25T22:17:01.020Z,77.10
2019-02-25T22:19:43.734Z,76.60
2019-02-25T22:22:37.362Z,76.70
2019-02-25T22:25:17.918Z,77.30
2019-02-25T22:27:55.534Z,77.40
2019-02-25T22:30:34.716Z,77.40
2019-02-25T22:33:26.815Z,76.90
2019-02-25T22:35:56.011Z,76.20
2019-02-25T22:38:35.409Z,76.20
2019-02-25T22:41:16.195Z,76.60
2019-02-25T22:43:55.366Z,76.20
2019-02-25T22:46:37.417Z,76.00
2019-02-25T22:49:17.259Z,76.10
2019-02-25T22:51:58.146Z,76.30
2019-02-25T22:54:40.935Z,76.30
2019-02-25T22:57:20.700Z,76.40
2019-02-25T22:59:59.825Z,76.20
2019-02-25T23:02:43.137Z,76.40
2019-02-25T23:05:22.897Z,76.10
2019-02-25T23:08:03.160Z,76.00
2019-02-25T23:10:44.467Z,75.90
2019-02-25T23:13:25.058Z,75.30
2019-02-25T23:16:04.434Z,75.10
2019-02-25T23:18:43.982Z,74.30
2019-02-25T23:21:24.204Z,74.40
2019-02-25T23:24:05.684Z,74.30
2019-02-25T23:26:46.328Z,74.50
2019-02-25T23:29:28.259Z,74.40
2019-02-25T23:32:06.587Z,75.00
2019-02-25T23:34:49.626Z,75.10
2019-02-25T23:37:27.928Z,75.10
2019-02-25T23:40:09.503Z,74.70
2019-02-25T23:42:49.375Z,74.50
2019-02-25T23:45:28.782Z,75.90
2019-02-25T23:48:11.565Z,75.60
2019-02-25T23:50:52.482Z,75.00
2019-02-25T23:53:32.853Z,74.30
2019-02-25T23:56:14.102Z,74.20
2019-02-25T23:58:56.233Z,74.70
